»·PEaware :: N251RT KSBA-KBUR

N251RT :: KSBA-KBUR

FLIGHT INFORMATION

Flight Status: Arrived
Operator: Privately registered:
United States
More flights under this callsign
Pilot: Roberto A. (10419)
Aircraft: CESSNA 310
(C310)
More flights by this aircraft type
Origin: KSBA Santa Barbara Mun
United States
Destination: KBUR Bob Hope-Burbank
United States
More flights between these airports :: More routes between these airports
Route:
File this flight plan on PilotEdge
Remarks:
Altitude:
(Current/Filed)
5,500ft
Speed:
(Current/Filed)
160kts
Departed: 23-Dec-18 03:38 PM
Arrived: 23-Dec-18 04:10 PM
Distance/Time
Traveled:
75nm/0:32
Distance/Time
To Go:
Arrived

Flight Plot

Page will automatically refresh every two minutes.


Map Options




Map Legend


Flown Route
Filed Route
Departure Airport
Arrival Airport
Navaid (VOR, NDB)
Fix

Horizontal Profiles

Position Reports

Time Latitude Longitude Heading Altitude Ground
Speed
23-Dec-18 14:54 34.422653 -119.835589 340 15ft 0kts
23-Dec-18 14:55 34.422653 -119.835589 340 15ft 0kts
23-Dec-18 14:56 34.422653 -119.835589 340 15ft 0kts
23-Dec-18 14:57 34.422653 -119.835589 340 16ft 0kts
23-Dec-18 14:58 34.422653 -119.835589 340 16ft 0kts
23-Dec-18 14:59 34.422653 -119.835589 340 16ft 0kts
23-Dec-18 15:00 34.422653 -119.835589 340 16ft 0kts
23-Dec-18 15:01 34.422653 -119.835589 340 16ft 0kts
23-Dec-18 15:02 34.422653 -119.835589 340 16ft 0kts
23-Dec-18 15:03 34.422653 -119.835589 340 16ft 0kts
23-Dec-18 15:04 34.422653 -119.835589 340 16ft 0kts
23-Dec-18 15:04 34.422653 -119.835589 340 16ft 0kts
23-Dec-18 15:06 34.422653 -119.835589 340 16ft 0kts
23-Dec-18 15:06 34.422653 -119.835589 340 16ft 0kts
23-Dec-18 15:08 34.422653 -119.835589 340 16ft 0kts
23-Dec-18 15:08 34.422653 -119.835589 340 16ft 0kts
23-Dec-18 15:10 34.422653 -119.835589 340 16ft 0kts
23-Dec-18 15:10 34.422653 -119.835589 340 16ft 0kts
23-Dec-18 15:11 34.422653 -119.835589 340 16ft 0kts
23-Dec-18 15:12 34.422653 -119.835589 340 16ft 0kts
23-Dec-18 15:13 34.422653 -119.835589 340 16ft 0kts
23-Dec-18 15:14 34.422653 -119.835589 340 16ft 0kts
23-Dec-18 15:15 34.422653 -119.835589 340 16ft 0kts
23-Dec-18 15:16 34.422653 -119.835589 340 16ft 0kts
23-Dec-18 15:17 34.422653 -119.835589 340 16ft 0kts
23-Dec-18 15:18 34.422653 -119.835589 340 16ft 0kts
23-Dec-18 15:19 34.422653 -119.835589 340 16ft 0kts
23-Dec-18 15:20 34.422653 -119.835589 340 16ft 0kts
23-Dec-18 15:21 34.422653 -119.835589 340 16ft 0kts
23-Dec-18 15:22 34.422653 -119.835589 340 16ft 0kts
23-Dec-18 15:23 34.422653 -119.835589 340 16ft 0kts
23-Dec-18 15:24 34.422653 -119.835589 340 16ft 0kts
23-Dec-18 15:25 34.422653 -119.835589 340 16ft 0kts
23-Dec-18 15:26 34.422653 -119.835589 340 16ft 0kts
23-Dec-18 15:27 34.422653 -119.835589 340 16ft 0kts
23-Dec-18 15:28 34.422653 -119.835589 340 16ft 0kts
23-Dec-18 15:29 34.422653 -119.835589 340 16ft 0kts
23-Dec-18 15:30 34.422653 -119.835589 340 16ft 0kts
23-Dec-18 15:31 34.422653 -119.835589 340 16ft 0kts
23-Dec-18 15:32 34.424854 -119.837800 346 15ft 17kts
23-Dec-18 15:33 34.426746 -119.835803 90 16ft 15kts
23-Dec-18 15:34 34.427090 -119.834613 355 15ft 0kts
23-Dec-18 15:35 34.427090 -119.834613 355 15ft 0kts
23-Dec-18 15:36 34.427879 -119.835874 265 16ft 0kts
23-Dec-18 15:37 34.427525 -119.851554 267 118ft 113kts
23-Dec-18 15:38 34.424749 -119.890211 264 1387ft 117kts
23-Dec-18 15:39 34.421804 -119.937299 265 1508ft 151kts
23-Dec-18 15:40 34.393952 -119.930175 119 1418ft 154kts
23-Dec-18 15:41 34.381035 -119.885716 106 2172ft 134kts
23-Dec-18 15:42 34.378553 -119.839484 81 2963ft 157kts
23-Dec-18 15:43 34.384854 -119.783965 82 3890ft 171kts
23-Dec-18 15:44 34.392232 -119.725583 82 4766ft 182kts
23-Dec-18 15:45 34.400241 -119.663611 100 5500ft 194kts
23-Dec-18 15:46 34.394450 -119.594508 98 5501ft 211kts
23-Dec-18 15:47 34.385220 -119.525240 122 5493ft 194kts
23-Dec-18 15:48 34.358871 -119.471229 124 5498ft 180kts
23-Dec-18 15:49 34.332814 -119.419142 124 5491ft 181kts
23-Dec-18 15:50 34.306315 -119.366534 124 5491ft 183kts
23-Dec-18 15:51 34.282857 -119.320554 125 5489ft 185kts
23-Dec-18 15:52 34.272912 -119.266575 104 5489ft 189kts
23-Dec-18 15:53 34.263281 -119.213029 104 5489ft 188kts
23-Dec-18 15:54 34.254269 -119.146903 91 5494ft 208kts
23-Dec-18 15:55 34.249346 -119.076015 98 5490ft 211kts
23-Dec-18 15:56 34.242608 -119.005407 98 5489ft 209kts
23-Dec-18 15:57 34.235904 -118.936056 97 5515ft 205kts
23-Dec-18 15:58 34.229119 -118.867422 97 5518ft 204kts
23-Dec-18 15:59 34.209158 -118.804504 120 5518ft 201kts
23-Dec-18 16:00 34.182500 -118.745052 109 5506ft 202kts
23-Dec-18 16:01 34.175284 -118.677722 91 5505ft 196kts
23-Dec-18 16:02 34.181681 -118.619198 81 5501ft 161kts
23-Dec-18 16:03 34.187970 -118.569485 84 5503ft 137kts
23-Dec-18 16:04 34.193524 -118.522128 84 4536ft 141kts
23-Dec-18 16:05 34.198794 -118.476784 84 3263ft 105kts
23-Dec-18 16:06 34.199589 -118.438171 93 2527ft 124kts
23-Dec-18 16:07 34.198444 -118.399336 90 1533ft 93kts
23-Dec-18 16:08 34.197926 -118.367177 92 738ft 80kts
23-Dec-18 16:09 34.199265 -118.360270 2 734ft 11kts
23-Dec-18 16:10 34.200904 -118.359783 48 734ft 0kts
23-Dec-18 16:11 34.200904 -118.359783 48 734ft 0kts
23-Dec-18 16:12 34.200904 -118.359783 48 734ft 0kts
23-Dec-18 16:13 34.200904 -118.359783 48 734ft 0kts
23-Dec-18 16:14 34.200904 -118.359783 48 734ft 0kts
23-Dec-18 16:15 34.200904 -118.359783 48 734ft 0kts
23-Dec-18 16:16 34.200904 -118.359783 48 734ft 0kts
23-Dec-18 16:17 34.200904 -118.359783 48 734ft 0kts
23-Dec-18 16:18 34.200904 -118.359783 48 734ft 0kts
23-Dec-18 16:19 34.200904 -118.359783 48 734ft 0kts
23-Dec-18 16:20 34.200904 -118.359783 48 734ft 0kts
23-Dec-18 16:21 34.200904 -118.359783 48 734ft 0kts
23-Dec-18 16:22 34.200904 -118.359783 48 734ft 0kts
23-Dec-18 16:23 34.200904 -118.359783 48 734ft 0kts

Navigation Log

Ident Type
Flight plan parsing failed, navigation log unavailable